createdAt,value
2023-04-16T00:01:40.842Z,9.11
2023-04-16T00:04:11.222Z,9.07
2023-04-16T00:06:40.584Z,9.02
2023-04-16T00:09:08.891Z,8.99
2023-04-16T00:11:36.904Z,9.00
2023-04-16T00:14:05.166Z,9.00
2023-04-16T00:16:33.382Z,9.01
2023-04-16T00:19:01.326Z,9.02
2023-04-16T00:21:29.229Z,9.00
2023-04-16T00:23:57.025Z,8.99
2023-04-16T00:26:24.909Z,9.01
2023-04-16T00:28:53.498Z,8.99
2023-04-16T00:31:33.277Z,8.98
2023-04-16T00:34:01.115Z,8.98
2023-04-16T00:36:29.767Z,8.94
2023-04-16T00:38:57.912Z,8.87
2023-04-16T00:41:26.979Z,8.82
2023-04-16T00:43:55.496Z,8.79
2023-04-16T00:46:25.084Z,8.80
2023-04-16T00:48:54.433Z,8.81
2023-04-16T00:51:22.868Z,8.79
2023-04-16T00:53:51.191Z,8.80
2023-04-16T00:56:20.487Z,8.82
2023-04-16T00:58:49.752Z,8.78
2023-04-16T01:01:17.622Z,8.77
2023-04-16T01:03:48.368Z,8.80
2023-04-16T01:06:18.238Z,8.80
2023-04-16T01:08:48.468Z,8.80
2023-04-16T01:11:16.468Z,8.80
2023-04-16T01:13:44.351Z,8.80
2023-04-16T01:16:13.253Z,8.80
2023-04-16T01:18:41.222Z,8.79
2023-04-16T01:21:09.221Z,8.77
2023-04-16T01:23:37.085Z,8.69
2023-04-16T01:26:05.327Z,8.70
2023-04-16T01:28:33.303Z,8.70
2023-04-16T01:31:01.483Z,8.71
2023-04-16T01:33:42.747Z,8.71
2023-04-16T01:36:11.060Z,8.72
2023-04-16T01:38:39.546Z,8.75
2023-04-16T01:41:07.697Z,8.77
2023-04-16T01:43:38.428Z,8.78
2023-04-16T01:53:43.569Z,8.74
2023-04-16T01:56:13.835Z,8.73
2023-04-16T01:58:43.054Z,8.73
2023-04-16T02:01:11.235Z,8.74
2023-04-16T02:03:40.441Z,8.73
2023-04-16T02:06:08.658Z,8.75
2023-04-16T02:08:37.159Z,8.76
2023-04-16T02:11:05.016Z,8.75
2023-04-16T02:13:33.294Z,8.73
2023-04-16T02:16:01.505Z,8.70
2023-04-16T02:18:49.773Z,8.67
2023-04-16T02:21:18.796Z,8.66
2023-04-16T02:23:51.825Z,8.66
2023-04-16T02:26:24.555Z,8.68
2023-04-16T02:28:52.383Z,8.68
2023-04-16T02:31:22.546Z,8.70
2023-04-16T02:33:50.726Z,8.72
2023-04-16T02:36:18.550Z,8.68
2023-04-16T02:38:47.024Z,8.69
2023-04-16T02:41:16.090Z,8.68
2023-04-16T02:43:44.222Z,8.64
2023-04-16T02:46:12.379Z,8.64
2023-04-16T02:48:40.882Z,8.67
2023-04-16T02:51:08.930Z,8.68
2023-04-16T02:53:36.743Z,8.67
2023-04-16T02:56:05.180Z,8.66
2023-04-16T02:58:33.230Z,8.67
2023-04-16T03:01:01.411Z,8.68
2023-04-16T03:03:29.411Z,8.68
2023-04-16T03:05:57.258Z,8.70
2023-04-16T03:08:25.353Z,8.70
2023-04-16T03:10:53.310Z,8.72
2023-04-16T03:13:21.342Z,8.72
2023-04-16T03:15:50.246Z,8.74
2023-04-16T03:18:18.259Z,8.73
2023-04-16T03:20:46.394Z,8.74
2023-04-16T03:23:14.300Z,8.71
2023-04-16T03:25:44.713Z,8.69
2023-04-16T03:28:12.579Z,8.65
2023-04-16T03:30:40.487Z,8.65
2023-04-16T03:33:09.154Z,8.68
2023-04-16T03:35:37.388Z,8.68
2023-04-16T03:38:05.492Z,8.69
2023-04-16T03:40:33.407Z,8.70
2023-04-16T03:43:01.667Z,8.71
2023-04-16T03:45:29.514Z,8.73
2023-04-16T03:47:57.704Z,8.72
2023-04-16T03:50:26.856Z,8.71
2023-04-16T03:52:55.060Z,8.72
2023-04-16T03:55:24.133Z,8.74
2023-04-16T03:57:52.209Z,8.77
2023-04-16T04:00:20.016Z,8.78
2023-04-16T04:03:01.255Z,8.76
2023-04-16T04:05:29.382Z,8.77
2023-04-16T04:07:57.251Z,8.74
2023-04-16T04:10:25.619Z,8.76
2023-04-16T04:12:54.562Z,8.79
2023-04-16T04:15:22.444Z,8.80
2023-04-16T04:17:50.373Z,8.79
2023-04-16T04:20:18.476Z,8.82
2023-04-16T04:22:47.158Z,8.82
2023-04-16T04:25:17.364Z,8.81
2023-04-16T04:27:45.200Z,8.84
2023-04-16T04:30:13.138Z,8.88
2023-04-16T04:32:41.729Z,8.92
2023-04-16T04:35:10.639Z,8.95
2023-04-16T04:37:38.648Z,8.98
2023-04-16T04:40:14.596Z,8.97
2023-04-16T04:42:42.375Z,8.97
2023-04-16T04:45:11.774Z,9.04
2023-04-16T04:47:39.884Z,9.08
2023-04-16T04:50:08.830Z,9.11
2023-04-16T04:52:36.759Z,9.16
2023-04-16T04:55:05.481Z,9.19
2023-04-16T04:57:33.375Z,9.21
2023-04-16T05:00:04.461Z,9.25
2023-04-16T05:02:40.103Z,9.32
2023-04-16T05:05:08.885Z,9.34
2023-04-16T05:07:36.995Z,9.38
2023-04-16T05:10:07.225Z,9.43
2023-04-16T05:12:35.189Z,9.49
2023-04-16T05:15:03.301Z,9.55
2023-04-16T05:17:31.497Z,9.61
2023-04-16T05:20:00.624Z,9.64
2023-04-16T05:22:28.600Z,9.73
2023-04-16T05:24:56.490Z,9.82
2023-04-16T05:27:24.332Z,9.88
2023-04-16T05:30:17.749Z,9.83
2023-04-16T05:32:46.051Z,9.79
2023-04-16T05:35:16.671Z,9.86
2023-04-16T05:37:45.416Z,10.01
2023-04-16T05:40:14.421Z,10.09
2023-04-16T05:42:42.254Z,10.20
2023-04-16T05:45:10.866Z,10.32
2023-04-16T05:47:38.780Z,10.41
2023-04-16T05:50:07.630Z,10.53
2023-04-16T05:52:35.763Z,10.60
2023-04-16T05:55:03.933Z,10.67
2023-04-16T05:57:31.718Z,10.82
2023-04-16T05:59:59.563Z,10.99
2023-04-16T06:02:28.201Z,11.15
2023-04-16T06:04:56.782Z,11.28
2023-04-16T06:07:24.710Z,11.35
2023-04-16T06:09:52.637Z,11.44
2023-04-16T06:12:20.844Z,11.50
2023-04-16T06:14:48.628Z,11.40
2023-04-16T06:17:16.842Z,11.48
2023-04-16T06:19:44.702Z,11.56
2023-04-16T06:22:12.716Z,11.67
2023-04-16T06:24:40.994Z,11.72
2023-04-16T06:27:08.820Z,11.65
2023-04-16T06:29:40.962Z,11.64
2023-04-16T06:32:09.615Z,11.73
2023-04-16T06:34:39.079Z,11.90
2023-04-16T06:37:09.868Z,12.06
2023-04-16T06:39:38.890Z,12.25
2023-04-16T06:42:07.586Z,12.28
2023-04-16T06:44:36.106Z,12.18
2023-04-16T06:47:04.132Z,12.19
2023-04-16T06:49:32.351Z,12.20
2023-04-16T06:52:00.430Z,12.28
2023-04-16T06:54:28.254Z,12.23
2023-04-16T06:56:56.265Z,12.21
2023-04-16T06:59:24.403Z,12.25
2023-04-16T07:01:53.022Z,12.30
2023-04-16T07:04:21.921Z,12.35
2023-04-16T07:06:49.917Z,12.34
2023-04-16T07:09:20.589Z,12.37
2023-04-16T07:11:48.457Z,12.40
2023-04-16T07:14:16.342Z,12.42
2023-04-16T07:16:44.582Z,12.44
2023-04-16T07:19:12.493Z,12.50
2023-04-16T07:21:42.140Z,12.54
2023-04-16T07:24:11.839Z,12.45
2023-04-16T07:26:39.775Z,12.42
2023-04-16T07:29:08.385Z,12.47
2023-04-16T07:31:36.695Z,12.43
2023-04-16T07:34:05.006Z,12.33
2023-04-16T07:36:32.898Z,12.25
2023-04-16T07:39:01.170Z,12.26
2023-04-16T07:41:29.851Z,12.30
2023-04-16T07:43:58.436Z,12.29
2023-04-16T07:46:30.485Z,12.30
2023-04-16T07:49:04.032Z,12.32
2023-04-16T07:51:32.773Z,12.36
2023-04-16T07:54:01.348Z,12.41
2023-04-16T07:56:29.140Z,12.52
2023-04-16T07:58:58.332Z,12.65
2023-04-16T08:01:31.604Z,12.77
2023-04-16T08:03:59.820Z,12.89
2023-04-16T08:06:27.919Z,13.00
2023-04-16T08:08:56.189Z,13.04
2023-04-16T08:11:24.263Z,13.05
2023-04-16T08:13:52.286Z,13.12
2023-04-16T08:16:20.405Z,13.24
2023-04-16T08:18:48.514Z,13.34
2023-04-16T08:21:16.454Z,13.41
2023-04-16T08:23:44.353Z,13.36
2023-04-16T08:26:12.130Z,13.34
2023-04-16T08:28:40.036Z,13.34
2023-04-16T08:31:07.933Z,13.35
2023-04-16T08:33:36.230Z,13.47
2023-04-16T08:36:06.099Z,13.56
2023-04-16T08:38:33.892Z,13.63
2023-04-16T08:41:05.793Z,13.68
2023-04-16T08:43:36.716Z,13.70
2023-04-16T08:46:05.997Z,13.72
2023-04-16T08:48:35.084Z,13.74
2023-04-16T08:51:03.468Z,13.75
2023-04-16T08:53:49.610Z,13.87
2023-04-16T08:56:21.557Z,14.07
2023-04-16T08:58:51.956Z,14.22
2023-04-16T09:01:21.200Z,14.29
2023-04-16T09:03:49.549Z,14.62
2023-04-16T09:06:18.524Z,14.84
2023-04-16T09:08:48.386Z,14.90
2023-04-16T09:11:18.864Z,15.00
2023-04-16T09:13:47.714Z,15.08
2023-04-16T09:16:16.103Z,15.20
2023-04-16T09:18:44.105Z,15.09
2023-04-16T09:21:12.995Z,15.09
2023-04-16T09:23:41.736Z,15.16
2023-04-16T09:26:09.643Z,15.30
2023-04-16T09:28:46.462Z,15.38
2023-04-16T09:31:16.142Z,15.60
2023-04-16T09:34:00.587Z,15.84
2023-04-16T09:36:29.084Z,15.84
2023-04-16T09:38:58.176Z,15.82
2023-04-16T09:41:31.241Z,15.96
2023-04-16T09:44:01.132Z,16.05
2023-04-16T09:46:37.038Z,16.05
2023-04-16T09:49:09.519Z,16.19
2023-04-16T09:51:38.749Z,16.23
2023-04-16T09:54:07.696Z,16.32
2023-04-16T09:56:43.718Z,16.45
2023-04-16T09:59:22.142Z,16.53
2023-04-16T10:01:50.725Z,16.48
2023-04-16T10:04:19.946Z,16.40
2023-04-16T10:07:05.952Z,16.34
2023-04-16T10:09:43.045Z,16.28
2023-04-16T10:12:12.978Z,16.26
2023-04-16T10:14:42.308Z,16.38
2023-04-16T10:17:10.557Z,16.49
2023-04-16T10:19:39.427Z,16.67
2023-04-16T10:22:07.360Z,16.71
2023-04-16T10:24:35.731Z,16.67
2023-04-16T10:27:04.222Z,16.62
2023-04-16T10:29:33.840Z,16.61
2023-04-16T10:32:03.542Z,16.66
2023-04-16T10:34:32.037Z,16.63
2023-04-16T10:36:59.866Z,16.68
2023-04-16T10:39:29.704Z,16.89
2023-04-16T10:42:12.417Z,17.03
2023-04-16T10:44:45.199Z,17.03
2023-04-16T10:47:14.530Z,17.14
2023-04-16T10:49:43.864Z,17.20
2023-04-16T10:52:17.104Z,17.29
2023-04-16T10:54:46.915Z,17.34
2023-04-16T10:57:20.840Z,17.41
2023-04-16T10:59:49.591Z,17.49
2023-04-16T11:02:19.433Z,17.57
2023-04-16T11:04:51.867Z,17.70
2023-04-16T11:07:21.729Z,17.77
2023-04-16T11:09:59.854Z,17.95
2023-04-16T11:12:42.391Z,18.16
2023-04-16T11:15:16.006Z,18.29
2023-04-16T11:17:46.124Z,18.29
2023-04-16T11:20:20.973Z,18.18
2023-04-16T11:22:50.607Z,18.20
2023-04-16T11:25:23.552Z,18.25
2023-04-16T11:27:53.061Z,18.17
2023-04-16T11:30:36.316Z,18.00
2023-04-16T11:33:13.478Z,17.72
2023-04-16T11:35:41.637Z,17.49
2023-04-16T11:38:09.643Z,17.46
2023-04-16T11:40:37.774Z,17.50
2023-04-16T11:43:15.547Z,17.45
2023-04-16T11:46:26.968Z,17.49
2023-04-16T11:48:56.273Z,17.49
2023-04-16T11:51:24.349Z,17.54
2023-04-16T11:53:54.436Z,17.62
2023-04-16T11:56:30.050Z,17.63
2023-04-16T11:59:11.648Z,17.67
2023-04-16T12:01:41.834Z,17.71
2023-04-16T12:04:10.245Z,17.72
2023-04-16T12:06:38.454Z,17.67
2023-04-16T12:09:27.268Z,17.71
2023-04-16T12:11:55.199Z,17.70
2023-04-16T12:14:23.849Z,17.67
2023-04-16T12:16:51.941Z,17.63
2023-04-16T12:19:19.853Z,17.46
2023-04-16T12:21:49.947Z,17.36
2023-04-16T12:24:24.204Z,17.20
2023-04-16T12:27:03.359Z,17.09
2023-04-16T12:29:32.185Z,17.20
2023-04-16T12:32:00.686Z,17.33
2023-04-16T12:34:46.764Z,17.46
2023-04-16T12:37:16.623Z,17.63
2023-04-16T12:39:45.482Z,17.64
2023-04-16T12:42:15.079Z,17.55
2023-04-16T12:44:42.972Z,17.39
2023-04-16T12:47:11.398Z,17.32
2023-04-16T12:49:40.800Z,17.17
2023-04-16T12:52:08.622Z,17.20
2023-04-16T12:54:36.548Z,17.16
2023-04-16T12:57:04.538Z,17.11
2023-04-16T12:59:32.286Z,17.07
2023-04-16T13:02:02.907Z,17.07
2023-04-16T13:04:31.493Z,17.02
2023-04-16T13:06:59.644Z,17.04
2023-04-16T13:09:27.648Z,17.18
2023-04-16T13:11:55.591Z,17.14
2023-04-16T13:14:23.382Z,17.12
2023-04-16T13:16:51.337Z,17.15
2023-04-16T13:19:19.328Z,17.20
2023-04-16T13:21:47.714Z,17.27
2023-04-16T13:24:15.772Z,17.35
2023-04-16T13:26:43.835Z,17.31
2023-04-16T13:29:12.035Z,17.22
2023-04-16T13:31:40.839Z,17.09
2023-04-16T13:34:08.809Z,17.04
2023-04-16T13:36:38.561Z,16.99
2023-04-16T13:39:11.058Z,16.95
2023-04-16T13:41:39.419Z,17.04
2023-04-16T13:44:07.791Z,17.13
2023-04-16T13:46:35.751Z,17.17
2023-04-16T13:49:04.030Z,17.18
2023-04-16T13:51:32.303Z,17.13
2023-04-16T13:54:00.147Z,17.11
2023-04-16T13:56:28.196Z,17.14
2023-04-16T13:58:56.238Z,17.15
2023-04-16T14:01:24.266Z,17.17
2023-04-16T14:03:52.266Z,17.06
2023-04-16T14:06:20.585Z,16.90
2023-04-16T14:08:48.358Z,16.81
2023-04-16T14:11:16.261Z,16.74
2023-04-16T14:13:44.126Z,16.85
2023-04-16T14:16:12.137Z,17.06
2023-04-16T14:18:42.492Z,17.18
2023-04-16T14:21:10.785Z,17.18
2023-04-16T14:23:38.817Z,17.06
2023-04-16T14:26:06.735Z,16.94
2023-04-16T14:28:35.978Z,16.88
2023-04-16T14:31:03.967Z,16.87
2023-04-16T14:33:32.492Z,16.87
2023-04-16T14:36:02.731Z,16.86
2023-04-16T14:38:32.102Z,16.81
2023-04-16T14:41:00.709Z,16.71
2023-04-16T14:43:28.970Z,16.65
2023-04-16T14:45:59.866Z,16.59
2023-04-16T14:48:28.192Z,16.59
2023-04-16T14:50:59.338Z,16.66
2023-04-16T14:53:29.159Z,16.74
2023-04-16T14:55:59.462Z,16.75
2023-04-16T14:58:27.300Z,16.67
2023-04-16T15:00:55.221Z,16.54
2023-04-16T15:03:29.369Z,16.43
2023-04-16T15:06:00.351Z,16.35
2023-04-16T15:08:28.738Z,16.26
2023-04-16T15:10:56.689Z,16.16
2023-04-16T15:13:24.549Z,16.03
2023-04-16T15:15:52.375Z,15.90
2023-04-16T15:18:21.010Z,15.85
2023-04-16T15:20:49.110Z,15.78
2023-04-16T15:23:17.020Z,15.70
2023-04-16T15:25:44.918Z,15.61
2023-04-16T15:28:13.307Z,15.56
2023-04-16T15:30:41.595Z,15.51
2023-04-16T15:33:12.582Z,15.44
2023-04-16T15:35:41.388Z,15.38
2023-04-16T15:38:09.188Z,15.33
2023-04-16T15:40:37.026Z,15.31
2023-04-16T15:43:06.551Z,15.31
2023-04-16T15:45:34.450Z,15.33
2023-04-16T15:48:02.505Z,15.34
2023-04-16T15:50:31.795Z,15.33
2023-04-16T15:53:01.504Z,15.27
2023-04-16T15:55:29.417Z,15.20
2023-04-16T15:57:57.443Z,15.14
2023-04-16T16:00:26.113Z,15.08
2023-04-16T16:02:54.074Z,15.06
2023-04-16T16:05:24.915Z,15.04
2023-04-16T16:07:52.833Z,15.03
2023-04-16T16:10:21.266Z,15.02
2023-04-16T16:12:49.446Z,15.02
2023-04-16T16:15:17.654Z,15.02
2023-04-16T16:17:45.781Z,15.05
2023-04-16T16:20:16.864Z,15.10
2023-04-16T16:22:47.846Z,15.17
2023-04-16T16:25:18.552Z,15.23
2023-04-16T16:27:47.662Z,15.27
2023-04-16T16:30:15.565Z,15.26
2023-04-16T16:32:44.511Z,15.20
2023-04-16T16:35:12.653Z,15.14
2023-04-16T16:37:40.793Z,15.07
2023-04-16T16:40:09.566Z,15.02
2023-04-16T16:42:37.458Z,14.92
2023-04-16T16:45:07.849Z,14.77
2023-04-16T16:47:35.997Z,14.66
2023-04-16T16:50:05.499Z,14.54
2023-04-16T16:52:33.544Z,14.38
2023-04-16T16:55:01.393Z,14.23
2023-04-16T16:57:31.673Z,14.12
2023-04-16T17:00:08.806Z,14.05
2023-04-16T17:02:39.017Z,13.99
2023-04-16T17:05:08.522Z,13.94
2023-04-16T17:07:37.421Z,13.88
2023-04-16T17:10:08.486Z,13.78
2023-04-16T17:12:37.091Z,13.66
2023-04-16T17:15:05.732Z,13.56
2023-04-16T17:17:34.187Z,13.49
2023-04-16T17:20:08.576Z,13.42
2023-04-16T17:22:40.175Z,13.36
2023-04-16T17:25:09.238Z,13.30
2023-04-16T17:27:37.754Z,13.23
2023-04-16T17:30:06.913Z,13.16
2023-04-16T17:32:35.036Z,13.11
2023-04-16T17:35:04.383Z,13.06
2023-04-16T17:37:33.221Z,13.00
2023-04-16T17:40:07.398Z,12.96
2023-04-16T17:42:36.433Z,12.89
2023-04-16T17:45:04.772Z,12.84
2023-04-16T17:47:36.125Z,12.78
2023-04-16T17:50:05.010Z,12.71
2023-04-16T17:52:33.239Z,12.61
2023-04-16T17:55:01.792Z,12.51
2023-04-16T17:57:31.222Z,12.39
2023-04-16T17:59:59.170Z,12.29
2023-04-16T18:02:27.298Z,12.19
2023-04-16T18:04:56.284Z,12.11
2023-04-16T18:07:24.608Z,12.03
2023-04-16T18:09:53.253Z,11.95
2023-04-16T18:12:21.270Z,11.87
2023-04-16T18:14:49.130Z,11.79
2023-04-16T18:17:18.011Z,11.69
2023-04-16T18:19:45.980Z,11.61
2023-04-16T18:22:13.928Z,11.54
2023-04-16T18:24:42.037Z,11.49
2023-04-16T18:27:10.121Z,11.46
2023-04-16T18:29:39.951Z,11.43
2023-04-16T18:32:11.768Z,11.40
2023-04-16T18:34:41.818Z,11.35
2023-04-16T18:37:09.753Z,11.31
2023-04-16T18:39:37.686Z,11.25
2023-04-16T18:42:06.320Z,11.18
2023-04-16T18:44:34.376Z,11.13
2023-04-16T18:47:02.324Z,11.06
2023-04-16T18:49:30.616Z,11.02
2023-04-16T18:51:58.892Z,10.99
2023-04-16T18:54:27.799Z,10.98
2023-04-16T18:56:57.740Z,10.98
2023-04-16T18:59:27.306Z,10.97
2023-04-16T19:01:55.628Z,10.97
2023-04-16T19:04:23.924Z,10.95
2023-04-16T19:06:52.024Z,10.95
2023-04-16T19:09:20.505Z,10.98
2023-04-16T19:11:50.704Z,11.00
2023-04-16T19:14:20.990Z,10.99
2023-04-16T19:16:49.488Z,10.99
2023-04-16T19:19:17.694Z,11.00
2023-04-16T19:21:52.060Z,10.99
2023-04-16T19:24:20.048Z,10.98
2023-04-16T19:26:47.876Z,10.93
2023-04-16T19:29:18.039Z,10.89
2023-04-16T19:31:47.369Z,10.86
2023-04-16T19:34:17.966Z,10.84
2023-04-16T19:36:46.005Z,10.80
2023-04-16T19:39:14.100Z,10.75
2023-04-16T19:41:42.046Z,10.70
2023-04-16T19:44:11.104Z,10.65
2023-04-16T19:46:38.961Z,10.60
2023-04-16T19:49:06.728Z,10.56
2023-04-16T19:51:35.284Z,10.53
2023-04-16T19:54:03.250Z,10.49
2023-04-16T19:56:31.369Z,10.47
2023-04-16T19:58:59.549Z,10.48
2023-04-16T20:01:28.365Z,10.48
2023-04-16T20:03:56.729Z,10.46
2023-04-16T20:06:26.241Z,10.45
2023-04-16T20:08:54.313Z,10.43
2023-04-16T20:11:22.359Z,10.40
2023-04-16T20:13:50.381Z,10.36
2023-04-16T20:16:24.133Z,10.34
2023-04-16T20:18:54.696Z,10.32
2023-04-16T20:21:22.738Z,10.30
2023-04-16T20:23:50.762Z,10.28
2023-04-16T20:26:18.943Z,10.28
2023-04-16T20:28:46.978Z,10.29
2023-04-16T20:31:14.887Z,10.25
2023-04-16T20:33:42.702Z,10.20
2023-04-16T20:36:10.692Z,10.17
2023-04-16T20:38:39.023Z,10.14
2023-04-16T20:41:10.479Z,10.10
2023-04-16T20:43:40.831Z,10.07
2023-04-16T20:46:09.938Z,10.05
2023-04-16T20:48:39.172Z,10.02
2023-04-16T20:51:09.538Z,9.98
2023-04-16T20:53:38.372Z,9.95
2023-04-16T20:56:07.360Z,9.90
2023-04-16T20:58:35.606Z,9.84
2023-04-16T21:01:05.704Z,9.78
2023-04-16T21:03:33.861Z,9.75
2023-04-16T21:06:01.995Z,9.70
2023-04-16T21:08:30.111Z,9.65
2023-04-16T21:10:58.345Z,9.59
2023-04-16T21:13:26.479Z,9.54
2023-04-16T21:15:54.664Z,9.50
2023-04-16T21:18:22.766Z,9.47
2023-04-16T21:20:50.781Z,9.44
2023-04-16T21:23:18.659Z,9.41
2023-04-16T21:25:46.559Z,9.40
2023-04-16T21:28:14.341Z,9.39
2023-04-16T21:30:43.071Z,9.41
2023-04-16T21:33:13.048Z,9.38
2023-04-16T21:35:40.970Z,9.35
2023-04-16T21:38:09.856Z,9.33
2023-04-16T21:40:38.736Z,9.30
2023-04-16T21:43:06.588Z,9.24
2023-04-16T21:45:34.369Z,9.19
2023-04-16T21:48:02.312Z,9.15
2023-04-16T21:50:30.262Z,9.10
2023-04-16T21:52:58.262Z,9.03
2023-04-16T21:55:26.209Z,8.98
2023-04-16T21:57:54.001Z,8.93
2023-04-16T22:00:21.781Z,8.88
2023-04-16T22:02:49.682Z,8.85
2023-04-16T22:05:17.934Z,8.82
2023-04-16T22:07:46.001Z,8.78
2023-04-16T22:10:15.166Z,8.73
2023-04-16T22:12:45.758Z,8.69
2023-04-16T22:15:14.292Z,8.65
2023-04-16T22:17:42.478Z,8.61
2023-04-16T22:20:14.011Z,8.54
2023-04-16T22:22:43.020Z,8.49
2023-04-16T22:25:11.602Z,8.44
2023-04-16T22:27:39.800Z,8.39
2023-04-16T22:30:08.658Z,8.39
2023-04-16T22:32:36.646Z,8.40
2023-04-16T22:35:05.352Z,8.39
2023-04-16T22:37:33.806Z,8.43
2023-04-16T22:40:01.871Z,8.51
2023-04-16T22:42:29.926Z,8.57
2023-04-16T22:44:57.716Z,8.60
2023-04-16T22:47:25.552Z,8.61
2023-04-16T22:49:53.811Z,8.62
2023-04-16T22:52:21.626Z,8.63
2023-04-16T22:54:49.580Z,8.67
2023-04-16T22:57:21.229Z,8.73
2023-04-16T22:59:49.205Z,8.80
2023-04-16T23:02:18.010Z,8.84
2023-04-16T23:04:48.046Z,8.88
2023-04-16T23:07:16.604Z,8.93
2023-04-16T23:09:44.453Z,8.97
2023-04-16T23:12:12.520Z,8.98
2023-04-16T23:14:46.169Z,9.00
2023-04-16T23:17:14.224Z,9.04
2023-04-16T23:19:42.153Z,9.05
2023-04-16T23:22:10.172Z,9.04
2023-04-16T23:24:38.703Z,9.04
2023-04-16T23:27:06.512Z,9.01
2023-04-16T23:29:34.353Z,8.98
2023-04-16T23:32:02.301Z,8.95
2023-04-16T23:34:30.473Z,8.88
2023-04-16T23:36:58.250Z,8.84
2023-04-16T23:39:26.355Z,8.80
2023-04-16T23:41:54.332Z,8.76
2023-04-16T23:44:22.272Z,8.76
2023-04-16T23:46:50.143Z,8.76
2023-04-16T23:49:18.260Z,8.75
2023-04-16T23:51:46.106Z,8.77
2023-04-16T23:54:14.874Z,8.79
2023-04-16T23:56:43.217Z,8.83
2023-04-16T23:59:11.319Z,8.86
